Estherville, IA (51334)

12:18 AM CDT on August 24, 2016 (GMT -0500)
Estherville Municipal | | Change Station

Elev 1316 ft 43.40 °N, 94.75 °W | Updated 26 minutes ago

Clear
Clear
71 °F
Feels Like 71 °F
N
9
Wind Variable Wind from South

Today
High -- | Low -- °F
--% Chance of Precip.
Yesterday
High -- | Low -- °F
Precip. -- in
Pressure 29.79 in
Visibility 5.0 miles
Clouds Clear
Dew Point 71 °F
Humidity 100%
Rainfall 0.55 in
Snow Depth Not available.
6:34 AM 8:07 PM
Waning Gibbous, 61% visible
METAR KEST 240452Z AUTO 18008KT 5SM BR CLR 22/22 A2981 RMK AO2 SLP086 T02170217
Pressure 29.79 in
Visibility 5.0 miles
Clouds Clear
Dew Point 71 °F
Humidity 100%
Rainfall 0.55 in
Snow Depth Not available.
6:34 AM 8:07 PM
Waning Gibbous, 61% visible
METAR KEST 240452Z AUTO 18008KT 5SM BR CLR 22/22 A2981 RMK AO2 SLP086 T02170217

10-Day Weather Forecast

Almanac

Astronomy

Aug. 24, 2016 Rise Set
Actual Time
Civil Twilight
Nautical Twilight
Astronomical Twilight
Moon
Length of Visible Light
Length of Day
Tomorrow will be .
, % of the Moon is Illuminated

Today's Extremes

State Highs State Lows

Community

WunderPhotos

Upload Photos

1,934,554 photos uploaded!

WunderBlog® & News

Nearby

Air Quality

  Air Quality AQ Index Pollutant
Not available.

Snow Depth

Station Depth Elevation

Earthquake Activity

City Distance Mag. Time & Date
Minimum magnitude displayed is 2.5.

Coastal Water Temperatures

Place Temperature

Stations

Nearby Weather Stations

Station Location Temp. Windchill Dew Point Humidity Wind Precip. Elev Updated Type
                   

Watches & Warnings

There are currently no watches in effect.